Magnetic Springs, Ohio
Current Conditions -  °F | °C
As of 9:18 PM on Saturday 22 Nov 2014 (Local Time) from KDLZ Reporting Station
Broken Clouds Broken Clouds  
Wind Chill: 50°   Ceiling: 5500
Heat Index: 50°   Visibility: 10mi
Dew Point: 34°   Wind: 9mph
Humidity: 54%   Direction: 190°S
Pressure: 30.06"   Gusts: 16mph
Location:  40.35°N, 83.26°W
Report Text: KDLZ 230218Z AUTO 19008G14KT 10SM BKN055 BKN110 10/01 A3006 RMK AO2
Loading
Personal Weather Stations






























Interactive Weather Map New forecast layout! Learn more

10-Day Weather Forecast

Advertisements
Track Severe Weather on mobile